Time;durP1;ratioP1;P1;durP2;ratioP2;P2;SDS_P1;SDS_P2;PMS_P1;PMS_P2;Temp;Humidity;BMP_temperature;BMP_pressure;BME280_temperature;BME280_humidity;BME280_pressure;Samples;Min_cycle;Max_cycle;Signal;HPM_P1;HPM_P2
2022/11/19 00:00:44;;;;;;;4.10;2.33;;;2.40;99.90;;;;;;5019449;28;20143;-70
2022/11/19 00:03:13;;;;;;;3.13;1.75;;;2.40;99.90;;;;;;5001439;28;20065;-69
2022/11/19 00:05:44;;;;;;;3.67;1.80;;;2.30;99.90;;;;;;4981636;28;20053;-70
2022/11/19 00:08:11;;;;;;;4.22;2.00;;;2.40;99.90;;;;;;5018801;28;20122;-70
2022/11/19 00:10:38;;;;;;;3.70;2.00;;;2.40;99.90;;;;;;4997109;28;20443;-70
2022/11/19 00:13:05;;;;;;;3.72;2.00;;;2.30;99.90;;;;;;5000162;28;20505;-70
2022/11/19 00:15:33;;;;;;;6.55;1.85;;;2.40;99.90;;;;;;4989838;28;20052;-71
2022/11/19 00:18:01;;;;;;;4.15;1.90;;;2.40;99.90;;;;;;5015901;28;20040;-71
2022/11/19 00:20:28;;;;;;;3.63;1.80;;;2.30;99.90;;;;;;5019511;28;20045;-70
2022/11/19 00:22:54;;;;;;;;;;;2.30;99.90;;;;;;5023771;28;20433;-70
2022/11/19 00:25:20;;;;;;;4.43;2.28;;;2.40;99.90;;;;;;4999293;28;19921;-70
2022/11/19 00:27:46;;;;;;;4.00;1.83;;;2.30;99.90;;;;;;4995011;28;20045;-70
2022/11/19 00:30:13;;;;;;;4.43;1.92;;;2.40;99.90;;;;;;4993882;28;20386;-70
2022/11/19 00:32:39;;;;;;;4.35;1.90;;;2.30;99.90;;;;;;4991184;28;20184;-70
2022/11/19 00:35:05;;;;;;;3.13;1.40;;;2.30;99.90;;;;;;5017926;28;20124;-70
2022/11/19 00:37:31;;;;;;;4.55;1.63;;;2.30;99.90;;;;;;5002316;28;20053;-70
2022/11/19 00:39:56;;;;;;;4.32;2.22;;;2.40;99.90;;;;;;5016206;28;20106;-70
2022/11/19 00:42:23;;;;;;;3.87;1.70;;;2.40;99.90;;;;;;4994422;28;20040;-70
2022/11/19 00:44:49;;;;;;;4.30;1.58;;;2.40;99.90;;;;;;4995357;28;20383;-71
2022/11/19 00:47:15;;;;;;;4.00;1.77;;;2.40;99.90;;;;;;5003329;28;20045;-69
2022/11/19 00:49:41;;;;;;;4.73;1.80;;;2.40;99.90;;;;;;5006083;28;20045;-71
2022/11/19 00:52:06;;;;;;;2.78;1.40;;;2.30;99.90;;;;;;4998761;28;20499;-70
2022/11/19 00:54:32;;;;;;;3.50;1.83;;;2.30;99.90;;;;;;4992533;28;20046;-70
2022/11/19 00:56:57;;;;;;;5.07;1.93;;;2.30;99.90;;;;;;5019194;28;20499;-71
2022/11/19 00:59:23;;;;;;;4.13;1.90;;;2.30;99.90;;;;;;4998656;28;20053;-70
2022/11/19 01:01:49;;;;;;;5.00;2.17;;;2.30;99.90;;;;;;5013106;28;20038;-70
2022/11/19 01:04:14;;;;;;;4.57;1.87;;;2.30;99.90;;;;;;5017237;28;20041;-70
2022/11/19 01:06:40;;;;;;;3.97;2.23;;;2.30;99.90;;;;;;5007864;28;20148;-69
2022/11/19 01:09:06;;;;;;;4.33;1.90;;;2.20;99.90;;;;;;5003336;28;20455;-70
2022/11/19 01:11:33;;;;;;;4.40;2.00;;;2.20;99.90;;;;;;5012511;28;20183;-70
2022/11/19 01:14:03;;;;;;;3.58;1.35;;;2.20;99.90;;;;;;4989669;28;20057;-70
2022/11/19 01:16:38;;;;;;;5.95;2.25;;;2.20;99.90;;;;;;4995983;28;20045;-70
2022/11/19 01:19:05;;;;;;;4.93;2.50;;;2.20;99.90;;;;;;5019572;28;20110;-70
2022/11/19 01:21:33;;;;;;;3.42;1.67;;;2.10;99.90;;;;;;5002470;28;20468;-70
2022/11/19 01:24:00;;;;;;;4.15;1.60;;;2.20;99.90;;;;;;4995552;28;20439;-69
2022/11/19 01:26:29;;;;;;;4.28;1.77;;;2.10;99.90;;;;;;5021893;28;20125;-70
2022/11/19 01:28:55;;;;;;;3.60;2.20;;;2.10;99.90;;;;;;5009892;28;20407;-70
2022/11/19 01:31:24;;;;;;;3.95;1.92;;;2.10;99.90;;;;;;5003728;28;20084;-70
2022/11/19 01:33:50;;;;;;;4.07;1.77;;;2.00;99.90;;;;;;5021637;28;20053;-70
2022/11/19 01:36:17;;;;;;;2.70;1.65;;;2.00;99.90;;;;;;4984240;28;20178;-70
2022/11/19 01:38:49;;;;;;;3.80;2.15;;;2.00;99.90;;;;;;4998532;28;20056;-69
2022/11/19 01:41:33;;;;;;;3.47;1.98;;;1.90;99.90;;;;;;5020181;28;20079;-70
2022/11/19 01:44:04;;;;;;;3.13;1.65;;;1.90;99.90;;;;;;5006195;28;20124;-69
2022/11/19 01:46:36;;;;;;;5.80;2.50;;;1.90;99.90;;;;;;5016162;28;20041;-70
2022/11/19 01:49:11;;;;;;;3.30;1.85;;;1.80;99.90;;;;;;5004771;28;20037;-70
2022/11/19 01:51:44;;;;;;;5.05;2.05;;;1.70;99.90;;;;;;5019220;28;20111;-69
2022/11/19 01:54:19;;;;;;;4.18;2.10;;;1.70;99.90;;;;;;5001735;28;20149;-70
2022/11/19 01:56:45;;;;;;;6.25;2.63;;;1.70;99.90;;;;;;5008877;28;20448;-70
2022/11/19 01:59:15;;;;;;;4.47;2.25;;;1.70;99.90;;;;;;5006785;28;20076;-70
2022/11/19 02:01:43;;;;;;;3.88;2.25;;;1.60;99.90;;;;;;5000517;28;20053;-70
2022/11/19 02:04:10;;;;;;;3.75;1.95;;;1.60;99.90;;;;;;4994194;28;20061;-69
2022/11/19 02:06:38;;;;;;;3.95;2.13;;;1.60;99.90;;;;;;5002022;28;20360;-70
2022/11/19 02:09:04;;;;;;;6.68;2.13;;;1.50;99.90;;;;;;5003821;28;20449;-69
2022/11/19 02:11:57;;;;;;;4.80;2.27;;;1.50;99.90;;;;;;5014067;28;20036;-69
2022/11/19 02:14:34;;;;;;;5.47;2.33;;;1.50;99.90;;;;;;5010421;28;20435;-70
2022/11/19 02:17:20;;;;;;;4.90;1.77;;;1.50;99.90;;;;;;5007458;28;20636;-69
2022/11/19 02:20:09;;;;;;;6.40;2.45;;;1.40;99.90;;;;;;5006811;28;20046;-69
2022/11/19 02:23:02;;;;;;;5.43;2.33;;;1.40;99.90;;;;;;5010767;28;20052;-70
2022/11/19 02:25:59;;;;;;;4.10;1.88;;;1.40;99.90;;;;;;4996050;28;20107;-69
2022/11/19 02:28:36;;;;;;;5.10;2.38;;;1.40;99.90;;;;;;5021276;28;20060;-69
2022/11/19 02:31:10;;;;;;;4.85;2.42;;;1.40;99.90;;;;;;5006444;28;20368;-70
2022/11/19 02:33:39;;;;;;;5.28;2.00;;;1.40;99.90;;;;;;5001240;28;20037;-69
2022/11/19 02:36:23;;;;;;;4.03;2.05;;;1.40;99.90;;;;;;5002996;28;20470;-70
2022/11/19 02:38:52;;;;;;;5.30;2.40;;;1.30;99.90;;;;;;5013745;28;20052;-70
2022/11/19 02:41:34;;;;;;;4.90;2.17;;;1.30;99.90;;;;;;5017714;28;20590;-70
2022/11/19 02:47:16;;;;;;;4.47;2.17;;;1.30;99.90;;;;;;5023342;28;20041;-74
2022/11/19 02:49:44;;;;;;;3.97;2.35;;;1.20;99.90;;;;;;5001696;28;20500;-69
2022/11/19 02:52:12;;;;;;;4.75;2.10;;;1.20;99.90;;;;;;5020631;28;20091;-69
2022/11/19 02:54:38;;;;;;;4.82;2.15;;;1.20;99.90;;;;;;5008008;28;20219;-69
2022/11/19 02:57:06;;;;;;;5.43;2.60;;;1.20;99.90;;;;;;5021138;28;20223;-69
2022/11/19 03:05:23;;;;;;;5.60;2.10;;;1.10;99.90;;;;;;5008684;28;20076;-69
2022/11/19 03:07:49;;;;;;;5.43;2.10;;;1.10;99.90;;;;;;5019375;28;20067;-69
2022/11/19 03:10:16;;;;;;;5.22;2.78;;;1.10;99.90;;;;;;5016789;28;20042;-69
2022/11/19 03:12:42;;;;;;;4.95;2.17;;;1.00;99.90;;;;;;5018106;28;20440;-69
2022/11/19 03:18:22;;;;;;;3.83;2.17;;;1.00;99.90;;;;;;5021628;28;20048;-70
2022/11/19 03:20:54;;;;;;;4.22;2.20;;;0.90;99.90;;;;;;5024826;28;20168;-69
2022/11/19 03:23:32;;;;;;;5.32;2.40;;;0.90;99.90;;;;;;5003134;28;20352;-70
2022/11/19 03:26:03;;;;;;;6.65;2.60;;;0.90;99.90;;;;;;5024932;28;20091;-69
2022/11/19 03:28:33;;;;;;;5.43;2.38;;;0.90;99.90;;;;;;5000989;28;20428;-69
2022/11/19 03:31:01;;;;;;;4.43;2.28;;;0.90;99.90;;;;;;5002259;28;20489;-69
2022/11/19 03:33:33;;;;;;;4.47;2.40;;;0.80;99.90;;;;;;5021222;28;20373;-69
2022/11/19 03:36:06;;;;;;;4.53;2.10;;;0.80;99.90;;;;;;4999542;28;20049;-69
2022/11/19 03:38:41;;;;;;;4.28;2.25;;;0.80;99.90;;;;;;4984426;28;20041;-69
2022/11/19 03:41:10;;;;;;;4.93;2.38;;;0.80;99.90;;;;;;5000818;28;20048;-69
2022/11/19 03:43:40;;;;;;;4.00;2.45;;;0.80;99.90;;;;;;5023941;28;20054;-69
2022/11/19 03:46:11;;;;;;;5.22;2.78;;;0.70;99.90;;;;;;5022705;28;20156;-69
2022/11/19 03:48:38;;;;;;;4.55;2.33;;;0.70;99.90;;;;;;5027457;28;20045;-69
2022/11/19 03:51:16;;;;;;;5.28;2.40;;;0.70;99.90;;;;;;5008152;28;20400;-69
2022/11/19 03:53:41;;;;;;;4.72;2.50;;;0.70;99.90;;;;;;5021690;28;20135;-69
2022/11/19 03:56:11;;;;;;;3.53;1.97;;;0.60;99.90;;;;;;5009579;28;20041;-69
2022/11/19 03:58:39;;;;;;;7.10;2.58;;;0.60;99.90;;;;;;5017764;28;20513;-69
2022/11/19 04:01:05;;;;;;;6.45;2.92;;;0.60;99.90;;;;;;5019177;28;20058;-69
2022/11/19 04:03:31;;;;;;;7.13;2.75;;;0.60;99.90;;;;;;5011924;28;20524;-69
2022/11/19 04:05:56;;;;;;;5.20;2.20;;;0.60;99.90;;;;;;5005165;28;20191;-69
2022/11/19 04:08:22;;;;;;;4.87;2.23;;;0.50;99.90;;;;;;5004253;28;20033;-69
2022/11/19 04:10:48;;;;;;;5.20;2.70;;;0.50;99.90;;;;;;4996942;28;20057;-69
2022/11/19 04:13:13;;;;;;;5.23;2.50;;;0.50;99.90;;;;;;4997423;28;20049;-70
2022/11/19 04:15:39;;;;;;;5.10;2.37;;;0.50;99.90;;;;;;5020741;28;20052;-69
2022/11/19 04:18:04;;;;;;;6.97;3.20;;;0.50;99.90;;;;;;5012338;28;20064;-69
2022/11/19 04:22:57;;;;;;;7.38;2.30;;;0.40;99.90;;;;;;5015922;28;20049;-70
2022/11/19 04:25:23;;;;;;;4.27;1.97;;;0.40;99.90;;;;;;4994916;28;20355;-72
2022/11/19 04:27:49;;;;;;;4.27;2.37;;;0.40;99.90;;;;;;5025237;28;20120;-71
2022/11/19 04:30:15;;;;;;;4.10;2.10;;;0.40;99.90;;;;;;5023382;28;20033;-70
2022/11/19 04:32:41;;;;;;;4.55;2.15;;;0.40;99.90;;;;;;5010001;28;20124;-71
2022/11/19 04:35:08;;;;;;;5.47;2.42;;;0.40;99.90;;;;;;5019788;28;20045;-71
2022/11/19 04:37:33;;;;;;;6.57;2.72;;;0.40;99.90;;;;;;5019327;28;20052;-71
2022/11/19 04:39:59;;;;;;;4.00;2.40;;;0.30;99.90;;;;;;5012163;28;20120;-71
2022/11/19 04:42:25;;;;;;;4.03;1.87;;;0.30;99.90;;;;;;5022607;28;20099;-70
2022/11/19 04:44:50;;;;;;;4.73;2.70;;;0.40;99.90;;;;;;5004382;28;20033;-71
2022/11/19 04:47:16;;;;;;;6.33;2.93;;;0.30;99.90;;;;;;5018785;28;20044;-71
2022/11/19 04:49:41;;;;;;;5.90;2.47;;;0.30;99.90;;;;;;5018258;28;20517;-72
2022/11/19 04:52:07;;;;;;;8.30;2.47;;;0.30;99.90;;;;;;5004544;28;20068;-71
2022/11/19 04:54:33;;;;;;;4.17;2.37;;;0.20;99.90;;;;;;5023937;28;20531;-70
2022/11/19 04:56:58;;;;;;;3.47;2.10;;;0.20;99.90;;;;;;5025138;28;20049;-70
2022/11/19 04:59:24;;;;;;;6.23;2.40;;;0.20;99.90;;;;;;5018978;28;20047;-70
2022/11/19 05:01:50;;;;;;;6.53;2.40;;;0.20;99.90;;;;;;5017904;28;20049;-70
2022/11/19 05:04:16;;;;;;;4.47;2.47;;;0.20;99.90;;;;;;5025030;28;20263;-71
2022/11/19 05:06:41;;;;;;;4.63;2.07;;;0.20;99.90;;;;;;4998214;28;20046;-71
2022/11/19 05:09:07;;;;;;;5.37;2.53;;;0.20;99.90;;;;;;5022261;28;20037;-72
2022/11/19 05:11:33;;;;;;;4.97;2.13;;;0.20;99.90;;;;;;5019949;28;20431;-70
2022/11/19 05:13:58;;;;;;;5.90;2.67;;;0.20;99.90;;;;;;5003967;28;20455;-70
2022/11/19 05:16:24;;;;;;;9.13;2.17;;;0.20;99.90;;;;;;5018560;28;22181;-70
2022/11/19 05:18:49;;;;;;;4.17;1.80;;;0.20;99.90;;;;;;5002370;28;20065;-71
2022/11/19 05:21:15;;;;;;;5.37;2.43;;;0.10;99.90;;;;;;5005616;28;20095;-70
2022/11/19 05:23:41;;;;;;;3.97;2.17;;;0.10;99.90;;;;;;5022623;28;20049;-70
2022/11/19 05:26:06;;;;;;;4.87;2.70;;;0.10;99.90;;;;;;5018539;28;20029;-70
2022/11/19 05:28:32;;;;;;;5.30;2.37;;;0.10;99.90;;;;;;5027266;28;20041;-71
2022/11/19 05:30:58;;;;;;;6.43;2.63;;;0.10;99.90;;;;;;5024345;28;20044;-71
2022/11/19 05:33:24;;;;;;;6.38;3.10;;;0.10;99.90;;;;;;5019162;28;20111;-72
2022/11/19 05:35:50;;;;;;;5.07;2.30;;;0.10;99.90;;;;;;5005304;28;20495;-71
2022/11/19 05:38:16;;;;;;;6.13;2.90;;;0.10;99.90;;;;;;5002615;28;20053;-70
2022/11/19 05:40:45;;;;;;;5.63;2.70;;;0.10;99.90;;;;;;5002138;28;20087;-70
2022/11/19 05:43:11;;;;;;;7.30;2.08;;;0.10;99.90;;;;;;5022366;28;20270;-71
2022/11/19 05:45:37;;;;;;;5.32;2.53;;;0.00;99.90;;;;;;5002225;28;20052;-70
2022/11/19 05:48:05;;;;;;;5.97;2.17;;;0.00;99.90;;;;;;4999190;28;20042;-71
2022/11/19 05:50:31;;;;;;;6.15;2.50;;;0.00;99.90;;;;;;5022491;28;20104;-71
2022/11/19 05:52:58;;;;;;;4.27;1.93;;;0.00;99.90;;;;;;5006120;28;20716;-70
2022/11/19 05:55:23;;;;;;;7.95;2.95;;;-0.10;99.90;;;;;;5004423;28;20048;-70
2022/11/19 05:57:49;;;;;;;5.40;2.43;;;-0.10;99.90;;;;;;5016628;28;20045;-70
2022/11/19 06:00:16;;;;;;;5.03;2.77;;;-0.10;99.90;;;;;;5022610;28;20068;-70
2022/11/19 06:02:42;;;;;;;5.28;2.72;;;-0.10;99.90;;;;;;4981434;28;20127;-71
2022/11/19 06:05:11;;;;;;;4.50;2.33;;;-0.10;99.90;;;;;;5014142;28;20123;-70
2022/11/19 06:07:36;;;;;;;4.25;2.40;;;-0.10;99.90;;;;;;5004240;28;20499;-70
2022/11/19 06:10:02;;;;;;;6.77;3.40;;;-0.20;99.90;;;;;;5001925;28;20048;-69
2022/11/19 06:12:28;;;;;;;5.40;2.57;;;-0.20;99.90;;;;;;5022623;28;20088;-70
2022/11/19 06:14:54;;;;;;;5.50;2.50;;;-0.20;99.90;;;;;;5023958;28;20487;-70
2022/11/19 06:17:20;;;;;;;6.75;2.70;;;-0.20;99.90;;;;;;4988112;28;20264;-70
2022/11/19 06:19:46;;;;;;;5.83;2.70;;;-0.20;99.90;;;;;;5024198;28;20042;-69
2022/11/19 06:22:11;;;;;;;4.77;2.40;;;-0.20;99.90;;;;;;5010430;28;20041;-70
2022/11/19 06:24:37;;;;;;;5.57;2.83;;;-0.20;99.90;;;;;;5020491;28;20033;-69
2022/11/19 06:27:04;;;;;;;7.13;2.90;;;-0.20;99.90;;;;;;5024400;28;20050;-69
2022/11/19 06:29:30;;;;;;;5.57;2.63;;;-0.20;99.90;;;;;;5005692;28;20057;-70
2022/11/19 06:31:56;;;;;;;8.03;3.10;;;-0.30;99.90;;;;;;5009795;28;20413;-69
2022/11/19 06:34:21;;;;;;;6.17;2.80;;;-0.30;99.90;;;;;;5008891;28;20048;-70
2022/11/19 06:36:47;;;;;;;6.70;3.47;;;-0.30;99.90;;;;;;5021359;28;20128;-69
2022/11/19 06:39:13;;;;;;;5.70;2.70;;;-0.30;99.90;;;;;;5017921;28;20155;-69
2022/11/19 06:41:38;;;;;;;7.63;2.93;;;-0.30;99.90;;;;;;5020403;28;20042;-69
2022/11/19 06:44:04;;;;;;;5.17;2.77;;;-0.30;99.90;;;;;;5015337;28;20447;-69
2022/11/19 06:46:30;;;;;;;5.03;2.80;;;-0.30;99.90;;;;;;5009314;28;20132;-69
2022/11/19 06:48:55;;;;;;;5.57;2.63;;;-0.30;99.90;;;;;;5024775;28;20034;-69
2022/11/19 06:51:21;;;;;;;8.47;2.93;;;-0.30;99.90;;;;;;5020144;28;20030;-69
2022/11/19 06:53:47;;;;;;;6.63;3.30;;;-0.40;99.90;;;;;;5020374;28;20034;-69
2022/11/19 06:56:12;;;;;;;6.23;3.10;;;-0.40;99.90;;;;;;5024784;28;20128;-70
2022/11/19 06:58:38;;;;;;;5.23;2.43;;;-0.40;99.90;;;;;;5003678;28;20129;-71
2022/11/19 07:01:04;;;;;;;7.10;3.50;;;-0.40;99.90;;;;;;5006007;28;20922;-69
2022/11/19 07:03:30;;;;;;;6.57;3.10;;;-0.40;99.90;;;;;;5025921;28;20088;-70
2022/11/19 07:06:01;;;;;;;5.37;2.73;;;-0.40;99.90;;;;;;5005132;28;20038;-70
2022/11/19 07:08:27;;;;;;;15.73;2.85;;;-0.40;99.90;;;;;;5026382;28;20043;-70
2022/11/19 07:10:53;;;;;;;6.40;3.10;;;-0.40;99.90;;;;;;5024080;28;20128;-71
2022/11/19 07:13:18;;;;;;;7.50;3.65;;;-0.40;99.90;;;;;;5025351;28;20157;-71
2022/11/19 07:15:44;;;;;;;6.07;2.83;;;-0.50;99.90;;;;;;5023021;28;20495;-69
2022/11/19 07:18:09;;;;;;;4.93;2.97;;;-0.40;99.90;;;;;;5022830;28;20151;-69
2022/11/19 07:20:35;;;;;;;7.43;3.40;;;-0.40;99.90;;;;;;5024893;28;20042;-70
2022/11/19 07:23:01;;;;;;;5.80;2.67;;;-0.40;99.90;;;;;;4990943;28;20056;-70
2022/11/19 07:25:27;;;;;;;6.03;2.80;;;-0.40;99.90;;;;;;5024533;28;20456;-70
2022/11/19 07:27:53;;;;;;;7.22;2.40;;;-0.40;99.90;;;;;;5007929;28;20334;-70
2022/11/19 07:30:18;;;;;;;6.28;2.95;;;-0.40;99.90;;;;;;5019599;28;20066;-70
2022/11/19 07:32:44;;;;;;;6.30;3.80;;;-0.40;99.90;;;;;;5004562;28;20109;-69
2022/11/19 07:35:10;;;;;;;4.67;2.50;;;-0.40;99.90;;;;;;5029131;28;20412;-69
2022/11/19 07:37:37;;;;;;;6.38;2.78;;;-0.40;99.90;;;;;;5000247;28;20120;-69
2022/11/19 07:40:03;;;;;;;8.23;3.35;;;-0.40;99.90;;;;;;5024228;28;20724;-69
2022/11/19 07:45:14;;;;;;;7.43;2.85;;;-0.40;99.90;;;;;;5001672;28;19921;-70
2022/11/19 07:47:40;;;;;;;7.30;3.53;;;-0.40;99.90;;;;;;5003956;28;20511;-70
2022/11/19 07:50:06;;;;;;;8.33;3.20;;;-0.30;99.90;;;;;;5003112;28;20042;-70
2022/11/19 07:52:32;;;;;;;7.05;3.28;;;-0.30;99.90;;;;;;5024308;28;20045;-71
2022/11/19 07:54:57;;;;;;;7.23;3.67;;;-0.30;99.90;;;;;;5023524;28;20266;-70
2022/11/19 07:57:23;;;;;;;6.40;3.00;;;-0.30;99.90;;;;;;5021116;28;20483;-69
2022/11/19 07:59:49;;;;;;;8.07;3.47;;;-0.30;99.90;;;;;;5006109;28;20096;-69
2022/11/19 08:02:14;;;;;;;7.13;3.33;;;-0.30;99.90;;;;;;4995689;28;20038;-70
2022/11/19 08:04:40;;;;;;;7.60;4.03;;;-0.20;99.90;;;;;;5006510;28;20030;-69
2022/11/19 08:07:06;;;;;;;8.87;3.80;;;-0.20;99.90;;;;;;5005934;28;20173;-69
2022/11/19 08:09:31;;;;;;;7.73;4.20;;;-0.20;99.90;;;;;;4996323;28;20117;-70
2022/11/19 08:11:57;;;;;;;8.57;3.77;;;-0.20;99.90;;;;;;5006047;28;20278;-71
2022/11/19 08:14:23;;;;;;;8.33;3.27;;;-0.20;99.90;;;;;;5000935;28;20065;-70
2022/11/19 08:19:32;;;;;;;4.70;2.95;;;-0.10;99.90;;;;;;5019579;28;20049;-70
2022/11/19 08:21:58;;;;;;;6.40;3.43;;;0.00;99.90;;;;;;5025861;28;20486;-69
2022/11/19 08:24:23;;;;;;;4.97;2.80;;;0.00;99.90;;;;;;5022817;28;20281;-70
2022/11/19 08:26:50;;;;;;;6.77;3.27;;;0.00;99.90;;;;;;5025117;28;20491;-71
2022/11/19 08:29:19;;;;;;;8.07;3.15;;;0.10;99.90;;;;;;5022230;28;20113;-70
2022/11/19 08:31:46;;;;;;;7.20;3.38;;;0.10;99.90;;;;;;4989799;28;20337;-71
2022/11/19 08:34:12;;;;;;;7.65;3.28;;;0.10;99.90;;;;;;5018649;28;20498;-70
2022/11/19 08:36:38;;;;;;;8.60;4.22;;;0.20;99.90;;;;;;5005054;28;20037;-71
2022/11/19 08:39:05;;;;;;;8.95;4.00;;;0.20;99.90;;;;;;5020304;28;20072;-69
2022/11/19 08:44:16;;;;;;;7.63;3.50;;;0.30;99.90;;;;;;4997878;28;20121;-71
2022/11/19 08:46:42;;;;;;;8.00;4.18;;;0.40;99.90;;;;;;5012496;28;20052;-69
2022/11/19 08:49:08;;;;;;;7.82;4.05;;;0.30;99.90;;;;;;5019947;28;20104;-70
2022/11/19 08:51:34;;;;;;;8.07;4.05;;;0.40;99.90;;;;;;5026653;28;20488;-70
2022/11/19 08:53:59;;;;;;;7.67;3.60;;;0.50;99.90;;;;;;4999519;28;20045;-70
2022/11/19 08:56:25;;;;;;;8.47;3.87;;;0.40;99.90;;;;;;5006400;28;20500;-70
2022/11/19 08:58:51;;;;;;;9.23;4.10;;;0.50;99.90;;;;;;4987704;28;20096;-70
2022/11/19 09:01:18;;;;;;;7.85;4.00;;;0.60;99.90;;;;;;5022697;28;20044;-71
2022/11/19 09:03:43;;;;;;;8.80;4.40;;;0.60;99.90;;;;;;5019048;28;20475;-70
2022/11/19 09:06:09;;;;;;;8.40;3.90;;;0.70;99.90;;;;;;4998058;28;20195;-72
2022/11/19 09:08:35;;;;;;;6.33;3.33;;;0.80;99.90;;;;;;5019525;28;20056;-69
2022/11/19 09:11:21;;;;;;;9.83;4.07;;;0.80;99.90;;;;;;5017067;28;20491;-70
2022/11/19 09:13:47;;;;;;;9.18;3.80;;;0.80;99.90;;;;;;5002082;28;20397;-69
2022/11/19 09:16:13;;;;;;;6.93;4.00;;;0.90;99.90;;;;;;5025873;28;20232;-70
2022/11/19 09:18:40;;;;;;;6.25;3.55;;;0.80;99.90;;;;;;5021308;28;20069;-69
2022/11/19 09:21:08;;;;;;;8.20;3.35;;;1.00;99.90;;;;;;5008011;28;20049;-70
2022/11/19 09:23:41;;;;;;;6.88;3.60;;;1.00;99.90;;;;;;5018312;28;20532;-71
2022/11/19 09:26:17;;;;;;;7.82;3.67;;;1.10;99.90;;;;;;5016394;28;20419;-70
2022/11/19 09:28:43;;;;;;;10.82;4.32;;;1.10;99.90;;;;;;5020079;28;20037;-70
2022/11/19 09:31:15;;;;;;;8.27;3.88;;;1.20;99.90;;;;;;5024277;28;20056;-71
2022/11/19 09:33:44;;;;;;;9.20;4.05;;;1.20;99.90;;;;;;5002610;28;20035;-70
2022/11/19 09:36:12;;;;;;;7.05;3.80;;;1.30;99.90;;;;;;5006880;28;20052;-70
2022/11/19 09:38:39;;;;;;;9.20;4.03;;;1.30;99.90;;;;;;5006387;28;20518;-70
2022/11/19 09:41:16;;;;;;;7.88;3.78;;;1.40;99.90;;;;;;5019711;28;20049;-70
2022/11/19 09:44:10;;;;;;;8.35;4.00;;;1.40;99.90;;;;;;5019316;28;20272;-69
2022/11/19 09:47:06;;;;;;;7.80;3.72;;;1.50;99.90;;;;;;5000069;28;20033;-70
2022/11/19 09:49:38;;;;;;;7.07;3.30;;;1.60;99.90;;;;;;5025217;28;20092;-71
2022/11/19 09:52:17;;;;;;;7.45;3.65;;;1.60;99.90;;;;;;5021268;28;20469;-69
2022/11/19 09:54:53;;;;;;;6.72;3.38;;;1.70;99.90;;;;;;4998744;28;20371;-70
2022/11/19 09:57:38;;;;;;;6.03;3.42;;;1.80;99.90;;;;;;5001074;28;20060;-70
2022/11/19 10:00:07;;;;;;;8.00;3.50;;;1.90;99.90;;;;;;5019474;28;20168;-70
2022/11/19 10:02:33;;;;;;;5.93;3.20;;;1.90;99.90;;;;;;4990720;28;20045;-69
2022/11/19 10:04:59;;;;;;;5.80;2.88;;;2.00;99.90;;;;;;5024173;28;20042;-70
2022/11/19 10:07:49;;;;;;;9.93;4.10;;;2.10;99.90;;;;;;5000897;28;20060;-70
2022/11/19 10:10:37;;;;;;;5.93;2.92;;;2.10;99.90;;;;;;5016048;28;20041;-71
2022/11/19 10:13:42;;;;;;;7.07;3.35;;;2.10;99.90;;;;;;5022462;28;20029;-71
2022/11/19 10:16:07;;;;;;;6.50;3.15;;;2.30;99.90;;;;;;5025316;28;20048;-70
2022/11/19 10:18:54;;;;;;;7.83;3.37;;;2.40;99.90;;;;;;5019949;28;20049;-70
2022/11/19 10:21:45;;;;;;;5.03;2.97;;;2.40;99.90;;;;;;5029384;23;21440;-70
2022/11/19 10:24:24;;;;;;;6.20;3.10;;;2.50;99.90;;;;;;5001692;28;20428;-68
2022/11/19 10:27:24;;;;;;;5.03;2.90;;;2.60;99.90;;;;;;5007790;28;20440;-70
2022/11/19 10:29:53;;;;;;;7.80;3.25;;;2.70;99.90;;;;;;5000606;28;20049;-70
2022/11/19 10:32:36;;;;;;;6.30;3.05;;;2.80;99.90;;;;;;5006711;28;20046;-70
2022/11/19 10:35:17;;;;;;;8.27;3.30;;;2.90;99.90;;;;;;5003431;28;20126;-69
2022/11/19 10:38:05;;;;;;;5.95;3.03;;;3.00;99.90;;;;;;5002182;28;20157;-68
2022/11/19 10:40:41;;;;;;;9.38;3.70;;;3.10;99.90;;;;;;5003477;28;20042;-68
2022/11/19 10:43:21;;;;;;;6.43;3.03;;;3.20;99.90;;;;;;5000913;28;20065;-70
2022/11/19 10:45:47;;;;;;;4.03;3.00;;;3.30;99.90;;;;;;5003933;28;20046;-69
2022/11/19 10:48:24;;;;;;;6.43;2.90;;;3.30;99.90;;;;;;5003908;28;20041;-69
2022/11/19 10:50:54;;;;;;;6.22;2.58;;;3.40;99.90;;;;;;5002052;28;20103;-69
2022/11/19 10:53:31;;;;;;;6.25;2.63;;;3.40;99.90;;;;;;5009875;28;20046;-69
2022/11/19 10:56:04;;;;;;;5.55;3.30;;;3.40;99.90;;;;;;5005769;28;20038;-69
2022/11/19 10:58:46;;;;;;;5.57;2.95;;;3.50;99.90;;;;;;5007267;28;20096;-69
2022/11/19 11:01:32;;;;;;;6.72;3.10;;;3.50;99.90;;;;;;5001948;28;20048;-69
2022/11/19 11:04:18;;;;;;;6.25;3.03;;;3.60;99.90;;;;;;5005648;28;20326;-69
2022/11/19 11:07:04;;;;;;;4.68;2.75;;;3.70;99.90;;;;;;5005313;28;20052;-69
2022/11/19 11:09:41;;;;;;;5.90;2.90;;;3.70;99.90;;;;;;4999118;28;20107;-68
2022/11/19 11:15:25;;;;;;;5.25;2.50;;;3.90;99.90;;;;;;4998329;28;20050;-69
2022/11/19 11:18:03;;;;;;;4.70;2.85;;;3.90;99.90;;;;;;5004284;28;20074;-69
2022/11/19 11:20:30;;;;;;;4.28;2.22;;;4.00;99.90;;;;;;4998228;28;20038;-69
2022/11/19 11:23:23;;;;;;;5.65;3.03;;;4.10;99.90;;;;;;5006496;28;20041;-68
2022/11/19 11:26:08;;;;;;;6.15;3.00;;;4.20;99.90;;;;;;4999508;28;20057;-69
2022/11/19 11:28:59;;;;;;;4.75;2.42;;;4.30;99.90;;;;;;5003889;28;20052;-69
2022/11/19 11:31:32;;;;;;;5.07;2.42;;;4.30;99.90;;;;;;5001937;28;20138;-69
2022/11/19 11:33:58;;;;;;;6.10;2.55;;;4.30;99.90;;;;;;5005287;28;20033;-68
2022/11/19 11:36:26;;;;;;;6.60;2.60;;;4.30;99.90;;;;;;5006477;28;20065;-69
2022/11/19 11:38:54;;;;;;;4.22;2.55;;;4.30;99.90;;;;;;5007322;28;20034;-68
2022/11/19 11:41:23;;;;;;;7.05;2.70;;;4.30;99.90;;;;;;5003291;28;20324;-68
2022/11/19 11:44:07;;;;;;;5.00;2.45;;;4.40;99.90;;;;;;4997949;28;20084;-68
2022/11/19 11:46:43;;;;;;;6.57;2.95;;;4.40;99.90;;;;;;4998822;28;20420;-69
2022/11/19 11:49:28;;;;;;;6.43;3.17;;;4.50;99.90;;;;;;5004180;28;20444;-69
2022/11/19 11:52:03;;;;;;;4.63;2.50;;;4.60;99.90;;;;;;5009607;28;20038;-69
2022/11/19 11:54:29;;;;;;;7.32;3.05;;;4.70;99.90;;;;;;4995433;28;20084;-69
2022/11/19 11:57:16;;;;;;;6.37;2.97;;;4.80;99.90;;;;;;5009921;28;20534;-70
2022/11/19 11:59:43;;;;;;;5.43;2.97;;;4.90;99.90;;;;;;5002387;28;20042;-69
2022/11/19 12:02:32;;;;;;;5.60;2.80;;;4.90;99.90;;;;;;4998977;28;20041;-69
2022/11/19 12:05:01;;;;;;;6.47;3.20;;;5.00;99.90;;;;;;4999140;28;20095;-69
2022/11/19 12:07:52;;;;;;;6.97;3.53;;;5.10;99.90;;;;;;4985361;28;20054;-69
2022/11/19 12:10:23;;;;;;;8.20;3.65;;;5.20;99.90;;;;;;4986241;28;20049;-69
2022/11/19 12:12:58;;;;;;;7.00;2.88;;;5.30;99.90;;;;;;4990634;28;20161;-69
2022/11/19 12:15:39;;;;;;;11.30;3.10;;;5.40;99.90;;;;;;5002308;28;20124;-69
2022/11/19 12:18:19;;;;;;;6.10;3.13;;;5.50;99.90;;;;;;5005605;28;20136;-69
2022/11/19 12:21:17;;;;;;;4.72;2.58;;;5.50;99.90;;;;;;4997245;28;20159;-69
2022/11/19 12:23:57;;;;;;;4.80;2.63;;;5.60;99.90;;;;;;4991186;28;20100;-69
2022/11/19 12:27:20;;;;;;;4.15;2.42;;;5.60;99.90;;;;;;5003362;28;20038;-69
2022/11/19 12:29:59;;;;;;;4.97;2.72;;;5.70;99.90;;;;;;4954985;28;20112;-69
2022/11/19 12:32:49;;;;;;;4.82;2.63;;;5.70;99.90;;;;;;5000906;28;20538;-69
2022/11/19 12:35:35;;;;;;;3.97;2.38;;;5.70;99.90;;;;;;4996915;28;20103;-69
2022/11/19 12:38:18;;;;;;;4.28;2.50;;;5.70;99.90;;;;;;4996740;28;20046;-69
2022/11/19 12:40:49;;;;;;;5.25;2.80;;;5.70;99.90;;;;;;4996643;28;20053;-69
2022/11/19 12:43:39;;;;;;;4.28;2.25;;;5.70;99.90;;;;;;4992876;28;20111;-69
2022/11/19 12:46:17;;;;;;;5.22;2.40;;;5.80;99.90;;;;;;5000595;28;20061;-69
2022/11/19 12:48:54;;;;;;;6.18;2.63;;;5.70;99.90;;;;;;4999013;28;20042;-69
2022/11/19 12:51:20;;;;;;;;;;;5.70;99.90;;;;;;5000595;28;20216;-69
2022/11/19 12:54:03;;;;;;;5.00;2.55;;;5.70;99.90;;;;;;5000859;28;20145;-71
2022/11/19 12:56:46;;;;;;;3.35;2.17;;;5.70;99.90;;;;;;4995076;28;20052;-69
2022/11/19 12:59:31;;;;;;;4.93;2.03;;;5.70;99.90;;;;;;4998126;28;20136;-69
2022/11/19 13:02:03;;;;;;;5.63;2.40;;;5.70;99.90;;;;;;4998485;28;20060;-69
2022/11/19 13:04:37;;;;;;;4.50;2.17;;;5.70;99.90;;;;;;4982693;28;20034;-69
2022/11/19 13:07:13;;;;;;;5.50;1.95;;;5.60;99.90;;;;;;4992282;28;20433;-69
2022/11/19 13:09:43;;;;;;;5.68;2.90;;;5.60;99.90;;;;;;4997676;28;20126;-69
2022/11/19 13:12:20;;;;;;;5.85;2.88;;;5.60;99.90;;;;;;4998306;28;20037;-69
2022/11/19 13:14:51;;;;;;;4.67;2.23;;;5.60;99.90;;;;;;4999964;28;20041;-69
2022/11/19 13:17:21;;;;;;;4.75;2.30;;;5.60;99.90;;;;;;4990589;28;20151;-69
2022/11/19 13:19:53;;;;;;;5.53;2.33;;;5.50;99.90;;;;;;4995928;28;20152;-69
2022/11/19 13:22:24;;;;;;;5.05;1.98;;;5.50;99.90;;;;;;4976878;28;20186;-69
2022/11/19 13:24:58;;;;;;;3.75;2.00;;;5.50;99.90;;;;;;5000362;28;20045;-69
2022/11/19 13:27:27;;;;;;;3.88;2.17;;;5.60;99.90;;;;;;5002409;28;20152;-69
2022/11/19 13:30:00;;;;;;;6.22;2.70;;;5.60;99.90;;;;;;5008030;28;20053;-69
2022/11/19 13:32:43;;;;;;;3.85;2.30;;;5.60;99.90;;;;;;5000654;28;20478;-69
2022/11/19 13:35:12;;;;;;;5.32;2.35;;;5.60;99.90;;;;;;4985824;28;20055;-69
2022/11/19 13:37:52;;;;;;;2.17;1.40;;;5.60;99.90;;;;;;5002122;28;20049;-69
2022/11/19 13:40:30;;;;;;;4.85;2.20;;;5.50;99.90;;;;;;4994058;28;20046;-69